createdAt,value
2023-05-21T00:02:21.625Z,13.48
2023-05-21T00:04:53.697Z,13.45
2023-05-21T00:07:25.812Z,13.50
2023-05-21T00:09:58.048Z,13.50
2023-05-21T00:12:30.599Z,13.44
2023-05-21T00:15:03.522Z,13.44
2023-05-21T00:17:37.228Z,13.41
2023-05-21T00:20:11.048Z,13.36
2023-05-21T00:22:43.940Z,13.41
2023-05-21T00:25:16.113Z,13.56
2023-05-21T00:27:48.275Z,13.60
2023-05-21T00:30:20.413Z,13.48
2023-05-21T00:32:52.607Z,13.40
2023-05-21T00:35:24.783Z,13.32
2023-05-21T00:37:57.508Z,13.24
2023-05-21T00:40:29.788Z,13.25
2023-05-21T00:43:02.210Z,13.26
2023-05-21T00:45:36.949Z,13.23
2023-05-21T00:48:09.922Z,13.27
2023-05-21T00:50:42.905Z,13.19
2023-05-21T00:53:18.250Z,13.17
2023-05-21T00:55:51.761Z,13.11
2023-05-21T00:58:24.353Z,13.15
2023-05-21T01:00:56.961Z,13.20
2023-05-21T01:03:29.461Z,13.21
2023-05-21T01:06:02.136Z,13.17
2023-05-21T01:08:35.259Z,13.13
2023-05-21T01:11:08.806Z,13.10
2023-05-21T01:13:43.251Z,12.97
2023-05-21T01:16:17.981Z,12.90
2023-05-21T01:18:50.314Z,12.93
2023-05-21T01:21:28.642Z,12.88
2023-05-21T01:24:02.417Z,12.88
2023-05-21T01:26:38.738Z,12.90
2023-05-21T01:29:13.333Z,12.89
2023-05-21T01:31:55.818Z,12.86
2023-05-21T01:34:31.865Z,12.77
2023-05-21T01:37:14.777Z,12.78
2023-05-21T01:39:53.569Z,12.68
2023-05-21T01:42:27.019Z,12.57
2023-05-21T01:45:02.765Z,12.49
2023-05-21T01:47:37.459Z,12.34
2023-05-21T01:50:11.982Z,12.35
2023-05-21T01:52:52.584Z,12.30
2023-05-21T01:55:25.569Z,12.37
2023-05-21T01:58:02.029Z,12.35
2023-05-21T02:00:35.225Z,12.42
2023-05-21T02:03:07.465Z,12.37
2023-05-21T02:05:39.738Z,12.22
2023-05-21T02:08:13.071Z,12.12
2023-05-21T02:10:45.238Z,12.09
2023-05-21T02:13:21.952Z,12.08
2023-05-21T02:15:56.494Z,12.04
2023-05-21T02:18:29.415Z,12.10
2023-05-21T02:21:02.108Z,12.13
2023-05-21T02:23:34.240Z,12.13
2023-05-21T02:26:06.554Z,12.12
2023-05-21T02:28:38.692Z,11.98
2023-05-21T02:31:10.806Z,11.84
2023-05-21T02:33:44.894Z,11.73
2023-05-21T02:36:19.158Z,11.62
2023-05-21T02:38:51.297Z,11.66
2023-05-21T02:41:24.236Z,11.71
2023-05-21T02:43:56.600Z,11.65
2023-05-21T02:46:28.842Z,11.57
2023-05-21T02:49:01.081Z,11.57
2023-05-21T02:51:33.443Z,11.56
2023-05-21T02:54:05.705Z,11.54
2023-05-21T02:56:37.766Z,11.56
2023-05-21T02:59:09.844Z,11.54
2023-05-21T03:01:42.511Z,11.66
2023-05-21T03:04:14.680Z,11.70
2023-05-21T03:06:46.877Z,11.61
2023-05-21T03:09:19.357Z,11.55
2023-05-21T03:11:51.947Z,11.51
2023-05-21T03:14:24.812Z,11.40
2023-05-21T03:16:56.977Z,11.33
2023-05-21T03:19:30.691Z,11.29
2023-05-21T03:22:03.348Z,11.37
2023-05-21T03:24:36.951Z,11.38
2023-05-21T03:27:09.791Z,11.38
2023-05-21T03:29:43.308Z,11.41
2023-05-21T03:32:15.809Z,11.44
2023-05-21T03:34:48.219Z,11.44
2023-05-21T03:37:20.596Z,11.44
2023-05-21T03:39:52.865Z,11.42
2023-05-21T03:42:25.077Z,11.44
2023-05-21T03:44:59.154Z,11.51
2023-05-21T03:48:01.905Z,11.54
2023-05-21T03:50:34.617Z,11.56
2023-05-21T03:53:06.680Z,11.69
2023-05-21T03:55:39.249Z,11.76
2023-05-21T03:58:12.008Z,11.90
2023-05-21T04:00:44.209Z,12.02
2023-05-21T04:03:16.569Z,12.15
2023-05-21T04:05:49.965Z,12.25
2023-05-21T04:08:22.438Z,12.20
2023-05-21T04:10:54.491Z,12.30
2023-05-21T04:13:28.475Z,12.45
2023-05-21T04:16:00.733Z,12.54
2023-05-21T04:18:34.435Z,12.60
2023-05-21T04:21:07.761Z,12.64
2023-05-21T04:23:39.847Z,12.64
2023-05-21T04:26:16.964Z,12.70
2023-05-21T04:28:49.068Z,12.73
2023-05-21T04:31:21.256Z,12.75
2023-05-21T04:33:54.710Z,12.81
2023-05-21T04:36:29.127Z,12.88
2023-05-21T04:39:01.893Z,13.00
2023-05-21T04:41:34.001Z,13.23
2023-05-21T04:44:06.518Z,13.46
2023-05-21T04:46:41.568Z,13.59
2023-05-21T04:49:14.440Z,13.76
2023-05-21T04:51:47.031Z,13.93
2023-05-21T04:54:19.181Z,14.10
2023-05-21T04:56:51.255Z,14.26
2023-05-21T04:59:23.612Z,14.45
2023-05-21T05:01:55.683Z,14.60
2023-05-21T05:04:29.223Z,14.70
2023-05-21T05:07:01.371Z,14.83
2023-05-21T05:09:33.672Z,14.96
2023-05-21T05:12:06.598Z,15.11
2023-05-21T05:14:38.646Z,15.29
2023-05-21T05:17:10.780Z,15.45
2023-05-21T05:19:43.335Z,15.58
2023-05-21T05:22:15.622Z,15.69
2023-05-21T05:24:47.866Z,15.84
2023-05-21T05:27:20.062Z,15.94
2023-05-21T05:29:52.226Z,16.08
2023-05-21T05:32:24.449Z,16.22
2023-05-21T05:34:56.677Z,16.35
2023-05-21T05:37:28.887Z,16.45
2023-05-21T05:40:01.055Z,16.54
2023-05-21T05:42:33.248Z,16.70
2023-05-21T05:45:06.572Z,16.81
2023-05-21T05:47:39.272Z,16.95
2023-05-21T05:50:12.310Z,17.09
2023-05-21T05:52:44.566Z,17.23
2023-05-21T05:55:16.841Z,17.28
2023-05-21T05:57:48.958Z,17.37
2023-05-21T06:00:22.399Z,17.51
2023-05-21T06:02:54.849Z,17.64
2023-05-21T06:05:27.528Z,17.81
2023-05-21T06:07:59.737Z,17.95
2023-05-21T06:10:31.925Z,18.04
2023-05-21T06:13:04.282Z,18.17
2023-05-21T06:15:36.862Z,18.24
2023-05-21T06:18:09.534Z,18.34
2023-05-21T06:20:41.725Z,18.43
2023-05-21T06:23:14.126Z,18.54
2023-05-21T06:25:46.459Z,18.69
2023-05-21T06:28:18.800Z,18.85
2023-05-21T06:30:51.720Z,19.02
2023-05-21T06:33:24.827Z,19.23
2023-05-21T06:35:57.388Z,19.40
2023-05-21T06:38:29.553Z,19.51
2023-05-21T06:41:01.910Z,19.64
2023-05-21T06:43:57.185Z,19.78
2023-05-21T06:46:48.125Z,19.91
2023-05-21T06:49:20.306Z,20.07
2023-05-21T06:51:52.515Z,20.23
2023-05-21T06:54:26.815Z,20.42
2023-05-21T06:56:59.764Z,20.59
2023-05-21T06:59:31.951Z,20.74
2023-05-21T07:02:04.779Z,20.90
2023-05-21T07:04:37.199Z,21.01
2023-05-21T07:07:09.762Z,21.11
2023-05-21T07:09:42.048Z,21.18
2023-05-21T07:12:14.340Z,21.28
2023-05-21T07:14:46.739Z,21.41
2023-05-21T07:17:18.972Z,21.54
2023-05-21T07:19:51.863Z,21.64
2023-05-21T07:22:25.970Z,21.73
2023-05-21T07:24:59.570Z,21.77
2023-05-21T07:27:31.952Z,21.89
2023-05-21T07:30:05.027Z,22.01
2023-05-21T07:32:37.913Z,22.13
2023-05-21T07:35:10.993Z,22.26
2023-05-21T07:37:43.138Z,22.31
2023-05-21T07:40:16.575Z,22.37
2023-05-21T07:42:48.806Z,22.49
2023-05-21T07:45:21.585Z,22.64
2023-05-21T07:47:54.393Z,22.81
2023-05-21T07:50:27.321Z,22.93
2023-05-21T07:52:59.871Z,23.03
2023-05-21T07:55:32.249Z,23.16
2023-05-21T07:58:04.855Z,23.28
2023-05-21T08:00:47.269Z,23.46
2023-05-21T08:03:20.280Z,23.68
2023-05-21T08:05:52.603Z,23.81
2023-05-21T08:08:25.073Z,23.95
2023-05-21T08:10:59.037Z,24.15
2023-05-21T08:13:32.127Z,24.37
2023-05-21T08:16:04.849Z,24.59
2023-05-21T08:18:37.408Z,24.81
2023-05-21T08:21:09.743Z,24.98
2023-05-21T08:23:41.906Z,25.14
2023-05-21T08:26:16.567Z,25.28
2023-05-21T08:28:48.874Z,25.40
2023-05-21T08:31:22.525Z,25.53
2023-05-21T08:33:56.954Z,25.67
2023-05-21T08:36:43.220Z,25.77
2023-05-21T08:39:26.108Z,25.88
2023-05-21T08:42:04.993Z,26.05
2023-05-21T08:44:39.342Z,26.20
2023-05-21T08:47:16.323Z,26.26
2023-05-21T08:49:52.380Z,26.35
2023-05-21T08:52:26.600Z,26.47
2023-05-21T08:54:59.816Z,26.53
2023-05-21T08:57:33.724Z,26.55
2023-05-21T09:00:08.120Z,26.65
2023-05-21T09:02:43.840Z,26.76
2023-05-21T09:05:17.958Z,26.92
2023-05-21T09:08:01.169Z,27.01
2023-05-21T09:10:52.354Z,27.13
2023-05-21T09:13:28.672Z,27.23
2023-05-21T09:16:01.915Z,27.34
2023-05-21T09:18:34.635Z,27.45
2023-05-21T09:21:30.215Z,27.53
2023-05-21T09:24:22.713Z,27.63
2023-05-21T09:26:56.519Z,27.69
2023-05-21T09:29:29.969Z,27.75
2023-05-21T09:32:07.427Z,27.82
2023-05-21T09:34:40.671Z,27.94
2023-05-21T09:37:26.584Z,28.15
2023-05-21T09:40:00.188Z,28.32
2023-05-21T09:42:32.769Z,28.51
2023-05-21T09:45:05.391Z,28.70
2023-05-21T09:47:41.865Z,28.88
2023-05-21T09:50:15.395Z,29.06
2023-05-21T09:52:47.945Z,29.20
2023-05-21T09:55:23.358Z,29.43
2023-05-21T09:57:55.682Z,29.76
2023-05-21T10:00:29.493Z,30.02
2023-05-21T10:03:07.236Z,30.23
2023-05-21T10:05:40.522Z,30.44
2023-05-21T10:08:15.952Z,30.58
2023-05-21T10:10:50.229Z,30.74
2023-05-21T10:13:24.705Z,30.90
2023-05-21T10:16:02.687Z,31.09
2023-05-21T10:18:35.712Z,31.34
2023-05-21T10:21:09.214Z,31.54
2023-05-21T10:23:42.649Z,31.76
2023-05-21T10:26:15.745Z,31.97
2023-05-21T10:28:47.886Z,32.18
2023-05-21T10:31:21.313Z,32.28
2023-05-21T10:33:54.526Z,32.36
2023-05-21T10:36:26.867Z,32.47
2023-05-21T10:39:00.015Z,32.61
2023-05-21T10:41:43.296Z,32.78
2023-05-21T10:44:24.083Z,32.75
2023-05-21T10:47:19.888Z,32.85
2023-05-21T10:50:09.160Z,33.02
2023-05-21T10:53:01.898Z,33.28
2023-05-21T10:55:47.666Z,33.50
2023-05-21T10:58:41.186Z,33.69
2023-05-21T11:01:12.214Z,33.90
2023-05-21T11:03:44.640Z,33.90
2023-05-21T11:06:26.555Z,33.97
2023-05-21T11:09:02.366Z,33.99
2023-05-21T11:11:51.428Z,33.88
2023-05-21T11:14:39.805Z,33.97
2023-05-21T11:17:17.208Z,34.12
2023-05-21T11:19:51.670Z,34.44
2023-05-21T11:22:28.050Z,34.52
2023-05-21T11:25:04.180Z,34.49
2023-05-21T11:27:37.918Z,34.67
2023-05-21T11:30:16.690Z,34.69
2023-05-21T11:33:20.836Z,34.78
2023-05-21T11:36:03.623Z,34.81
2023-05-21T11:38:36.288Z,34.75
2023-05-21T11:41:10.521Z,34.45
2023-05-21T11:43:44.983Z,34.45
2023-05-21T11:46:17.808Z,34.76
2023-05-21T11:48:52.112Z,34.96
2023-05-21T11:51:24.339Z,35.09
2023-05-21T11:53:57.378Z,35.21
2023-05-21T11:56:32.126Z,35.50
2023-05-21T11:59:06.533Z,35.62
2023-05-21T12:01:39.528Z,36.06
2023-05-21T12:04:12.718Z,36.45
2023-05-21T12:06:48.474Z,36.40
2023-05-21T12:09:20.790Z,36.35
2023-05-21T12:11:52.921Z,36.59
2023-05-21T12:14:25.160Z,36.84
2023-05-21T12:16:57.300Z,37.02
2023-05-21T12:19:30.251Z,37.19
2023-05-21T12:22:05.378Z,37.25
2023-05-21T12:24:36.494Z,36.97
2023-05-21T12:27:10.820Z,36.82
2023-05-21T12:29:44.457Z,36.77
2023-05-21T12:32:17.451Z,36.76
2023-05-21T12:34:50.763Z,37.07
2023-05-21T12:37:25.532Z,37.39
2023-05-21T12:39:59.679Z,37.59
2023-05-21T12:42:35.063Z,37.64
2023-05-21T12:45:12.341Z,37.50
2023-05-21T12:47:49.030Z,37.13
2023-05-21T12:50:24.089Z,36.78
2023-05-21T12:52:59.273Z,36.64
2023-05-21T12:55:32.495Z,36.57
2023-05-21T12:58:09.073Z,36.67
2023-05-21T13:00:45.619Z,36.85
2023-05-21T13:03:17.825Z,37.04
2023-05-21T13:05:49.986Z,37.28
2023-05-21T13:08:22.083Z,37.49
2023-05-21T13:10:54.321Z,37.40
2023-05-21T13:13:26.589Z,37.42
2023-05-21T13:16:00.762Z,37.40
2023-05-21T13:18:32.954Z,37.36
2023-05-21T13:21:05.139Z,37.24
2023-05-21T13:23:37.202Z,37.29
2023-05-21T13:26:09.965Z,37.54
2023-05-21T13:28:42.813Z,37.67
2023-05-21T13:31:16.436Z,37.81
2023-05-21T13:33:48.684Z,37.81
2023-05-21T13:36:20.952Z,37.74
2023-05-21T13:38:53.115Z,37.69
2023-05-21T13:41:25.153Z,37.63
2023-05-21T13:43:57.274Z,37.56
2023-05-21T13:46:29.901Z,37.72
2023-05-21T13:49:03.746Z,37.63
2023-05-21T13:51:38.487Z,37.48
2023-05-21T13:54:11.729Z,37.61
2023-05-21T13:56:43.837Z,37.57
2023-05-21T13:59:16.156Z,37.48
2023-05-21T14:01:50.095Z,37.47
2023-05-21T14:04:22.708Z,37.41
2023-05-21T14:06:54.781Z,37.38
2023-05-21T14:09:27.433Z,37.25
2023-05-21T14:11:59.992Z,37.22
2023-05-21T14:14:32.523Z,37.21
2023-05-21T14:17:04.841Z,37.33
2023-05-21T14:19:36.899Z,37.20
2023-05-21T14:22:09.162Z,37.21
2023-05-21T14:24:41.280Z,37.09
2023-05-21T14:27:15.252Z,36.88
2023-05-21T14:29:47.543Z,36.89
2023-05-21T14:32:19.650Z,37.00
2023-05-21T14:34:51.788Z,36.99
2023-05-21T14:37:23.920Z,36.59
2023-05-21T14:39:56.020Z,36.32
2023-05-21T14:42:28.364Z,36.13
2023-05-21T14:45:16.898Z,36.11
2023-05-21T14:47:50.931Z,35.94
2023-05-21T14:50:23.124Z,35.50
2023-05-21T14:52:55.788Z,35.10
2023-05-21T14:55:28.507Z,34.99
2023-05-21T14:58:00.629Z,35.20
2023-05-21T15:00:33.238Z,35.22
2023-05-21T15:03:06.198Z,35.36
2023-05-21T15:05:38.614Z,35.43
2023-05-21T15:08:11.275Z,35.41
2023-05-21T15:10:43.631Z,35.48
2023-05-21T15:13:16.189Z,35.50
2023-05-21T15:15:48.379Z,35.40
2023-05-21T15:18:20.418Z,35.27
2023-05-21T15:20:52.997Z,35.09
2023-05-21T15:23:25.885Z,35.10
2023-05-21T15:25:58.948Z,34.92
2023-05-21T15:28:31.240Z,34.66
2023-05-21T15:31:03.436Z,34.46
2023-05-21T15:33:35.907Z,34.06
2023-05-21T15:36:09.035Z,33.72
2023-05-21T15:38:41.228Z,33.48
2023-05-21T15:41:13.365Z,33.24
2023-05-21T15:43:47.209Z,33.06
2023-05-21T15:46:19.333Z,32.79
2023-05-21T15:48:51.403Z,32.37
2023-05-21T15:51:23.504Z,31.88
2023-05-21T15:53:56.201Z,31.30
2023-05-21T15:56:28.418Z,30.76
2023-05-21T15:59:01.604Z,30.31
2023-05-21T16:01:33.961Z,29.89
2023-05-21T16:04:06.521Z,29.54
2023-05-21T16:06:39.040Z,29.25
2023-05-21T16:09:11.408Z,29.05
2023-05-21T16:11:44.944Z,28.83
2023-05-21T16:14:17.100Z,28.45
2023-05-21T16:16:49.264Z,28.15
2023-05-21T16:19:21.467Z,27.87
2023-05-21T16:21:53.645Z,27.59
2023-05-21T16:24:25.826Z,27.33
2023-05-21T16:26:57.878Z,27.13
2023-05-21T16:29:30.039Z,26.88
2023-05-21T16:32:02.178Z,26.63
2023-05-21T16:34:36.072Z,26.37
2023-05-21T16:37:09.988Z,26.22
2023-05-21T16:39:42.205Z,26.07
2023-05-21T16:42:14.210Z,25.94
2023-05-21T16:44:46.311Z,25.75
2023-05-21T16:47:18.417Z,25.56
2023-05-21T16:49:50.481Z,25.43
2023-05-21T16:52:24.067Z,25.30
2023-05-21T16:54:56.220Z,25.14
2023-05-21T16:57:28.362Z,25.00
2023-05-21T17:00:02.063Z,24.85
2023-05-21T17:02:34.624Z,24.74
2023-05-21T17:05:08.339Z,24.64
2023-05-21T17:07:40.452Z,24.50
2023-05-21T17:10:13.491Z,24.42
2023-05-21T17:12:46.336Z,24.34
2023-05-21T17:15:19.270Z,24.22
2023-05-21T17:17:51.449Z,24.11
2023-05-21T17:20:25.782Z,24.00
2023-05-21T17:22:57.943Z,23.89
2023-05-21T17:25:30.569Z,23.79
2023-05-21T17:28:03.307Z,23.68
2023-05-21T17:30:35.523Z,23.58
2023-05-21T17:33:07.858Z,23.48
2023-05-21T17:35:40.315Z,23.39
2023-05-21T17:38:12.636Z,23.30
2023-05-21T17:40:44.971Z,23.21
2023-05-21T17:43:17.835Z,23.11
2023-05-21T17:45:49.920Z,23.02
2023-05-21T17:48:22.158Z,22.90
2023-05-21T17:50:54.682Z,22.78
2023-05-21T17:53:26.958Z,22.68
2023-05-21T17:55:59.201Z,22.59
2023-05-21T17:58:31.702Z,22.50
2023-05-21T18:01:03.845Z,22.42
2023-05-21T18:03:35.918Z,22.34
2023-05-21T18:06:09.671Z,22.25
2023-05-21T18:08:42.292Z,22.12
2023-05-21T18:11:14.458Z,22.03
2023-05-21T18:13:46.683Z,21.95
2023-05-21T18:16:18.878Z,21.88
2023-05-21T18:18:51.063Z,21.80
2023-05-21T18:21:23.474Z,21.70
2023-05-21T18:23:55.763Z,21.60
2023-05-21T18:26:30.154Z,21.54
2023-05-21T18:29:02.693Z,21.45
2023-05-21T18:31:35.140Z,21.36
2023-05-21T18:34:07.322Z,21.28
2023-05-21T18:36:40.289Z,21.17
2023-05-21T18:39:12.841Z,21.08
2023-05-21T18:41:45.176Z,20.99
2023-05-21T18:44:18.438Z,20.91
2023-05-21T18:46:51.879Z,20.84
2023-05-21T18:49:24.872Z,20.74
2023-05-21T18:51:57.094Z,20.67
2023-05-21T18:54:29.389Z,20.61
2023-05-21T18:57:01.835Z,20.55
2023-05-21T18:59:34.250Z,20.47
2023-05-21T19:02:07.807Z,20.38
2023-05-21T19:04:39.977Z,20.26
2023-05-21T19:07:12.064Z,20.15
2023-05-21T19:09:45.076Z,20.05
2023-05-21T19:12:17.628Z,19.94
2023-05-21T19:14:49.868Z,19.83
2023-05-21T19:17:22.312Z,19.72
2023-05-21T19:19:56.283Z,19.64
2023-05-21T19:22:29.435Z,19.55
2023-05-21T19:25:01.845Z,19.48
2023-05-21T19:27:33.904Z,19.44
2023-05-21T19:30:10.240Z,19.40
2023-05-21T19:32:41.624Z,19.31
2023-05-21T19:35:14.810Z,19.21
2023-05-21T19:37:46.889Z,19.10
2023-05-21T19:40:22.698Z,18.96
2023-05-21T19:42:54.802Z,18.81
2023-05-21T19:45:27.123Z,18.67
2023-05-21T19:47:59.966Z,18.55
2023-05-21T19:50:32.273Z,18.47
2023-05-21T19:53:05.256Z,18.41
2023-05-21T19:55:37.786Z,18.34
2023-05-21T19:58:13.508Z,18.26
2023-05-21T20:00:47.490Z,18.16
2023-05-21T20:03:19.895Z,18.07
2023-05-21T20:05:52.073Z,18.00
2023-05-21T20:08:24.199Z,17.95
2023-05-21T20:10:59.115Z,17.92
2023-05-21T20:13:33.636Z,17.87
2023-05-21T20:16:06.440Z,17.82
2023-05-21T20:18:38.577Z,17.79
2023-05-21T20:21:11.320Z,17.77
2023-05-21T20:23:43.526Z,17.72
2023-05-21T20:26:15.914Z,17.67
2023-05-21T20:28:48.234Z,17.62
2023-05-21T20:31:20.548Z,17.58
2023-05-21T20:33:54.043Z,17.57
2023-05-21T20:36:27.365Z,17.57
2023-05-21T20:39:01.851Z,17.57
2023-05-21T20:41:37.480Z,17.55
2023-05-21T20:44:07.917Z,17.51
2023-05-21T20:46:41.338Z,17.46
2023-05-21T20:49:13.760Z,17.40
2023-05-21T20:51:46.502Z,17.34
2023-05-21T20:54:18.577Z,17.28
2023-05-21T20:56:51.045Z,17.19
2023-05-21T20:59:23.229Z,17.14
2023-05-21T21:01:55.437Z,17.10
2023-05-21T21:04:27.677Z,17.09
2023-05-21T21:07:02.065Z,17.06
2023-05-21T21:09:34.157Z,17.03
2023-05-21T21:12:21.192Z,17.00
2023-05-21T21:14:57.578Z,16.95
2023-05-21T21:17:29.736Z,16.91
2023-05-21T21:20:01.902Z,16.87
2023-05-21T21:22:34.469Z,16.83
2023-05-21T21:25:07.726Z,16.81
2023-05-21T21:27:39.965Z,16.77
2023-05-21T21:30:13.615Z,16.72
2023-05-21T21:32:47.649Z,16.63
2023-05-21T21:35:19.807Z,16.55
2023-05-21T21:37:51.959Z,16.48
2023-05-21T21:40:24.054Z,16.40
2023-05-21T21:42:56.233Z,16.30
2023-05-21T21:45:28.380Z,16.23
2023-05-21T21:48:00.909Z,16.14
2023-05-21T21:50:32.999Z,16.05
2023-05-21T21:53:06.039Z,15.92
2023-05-21T21:55:38.125Z,15.77
2023-05-21T21:58:10.185Z,15.65
2023-05-21T22:00:42.620Z,15.55
2023-05-21T22:03:14.907Z,15.45
2023-05-21T22:05:50.749Z,15.38
2023-05-21T22:08:22.835Z,15.32
2023-05-21T22:10:55.009Z,15.25
2023-05-21T22:13:29.214Z,15.17
2023-05-21T22:16:03.698Z,15.14
2023-05-21T22:18:40.073Z,15.13
2023-05-21T22:21:14.585Z,15.11
2023-05-21T22:23:46.737Z,15.01
2023-05-21T22:26:18.792Z,14.82
2023-05-21T22:28:51.615Z,14.73
2023-05-21T22:31:23.869Z,14.68
2023-05-21T22:33:56.042Z,14.65
2023-05-21T22:36:28.225Z,14.60
2023-05-21T22:39:00.282Z,14.55
2023-05-21T22:41:32.315Z,14.50
2023-05-21T22:44:04.417Z,14.43
2023-05-21T22:46:36.558Z,14.37
2023-05-21T22:49:10.330Z,14.31
2023-05-21T22:51:45.048Z,14.13
2023-05-21T22:54:17.180Z,14.01
2023-05-21T22:56:50.268Z,13.94
2023-05-21T22:59:22.287Z,13.93
2023-05-21T23:01:54.461Z,13.95
2023-05-21T23:04:42.738Z,13.89
2023-05-21T23:07:15.668Z,13.86
2023-05-21T23:09:48.030Z,13.82
2023-05-21T23:12:20.094Z,13.83
2023-05-21T23:14:52.115Z,13.86
2023-05-21T23:17:24.513Z,13.85
2023-05-21T23:19:57.786Z,13.81
2023-05-21T23:22:30.768Z,13.75
2023-05-21T23:25:02.900Z,13.70
2023-05-21T23:27:34.892Z,13.65
2023-05-21T23:30:09.372Z,13.59
2023-05-21T23:32:41.534Z,13.55
2023-05-21T23:35:14.575Z,13.48
2023-05-21T23:37:46.647Z,13.39
2023-05-21T23:40:18.923Z,13.35
2023-05-21T23:42:51.090Z,13.29
2023-05-21T23:45:23.464Z,13.26
2023-05-21T23:47:55.903Z,13.20
2023-05-21T23:50:28.103Z,13.15
2023-05-21T23:53:01.640Z,13.10
2023-05-21T23:55:33.775Z,13.07
2023-05-21T23:58:05.900Z,13.06
